| time (UTC) | temp F | wind direction | speed knots | gust knots | rain 1hr in | rain 24hr in | rain mn in | humidity % | barometer mb |
| 20260502203920 | 65 | 257 | 7.0 | 8.7 | 0.00 | 0.00 | 0.00 | 34 | 1011.4 |
| 20260502203417 | 65 | 239 | 3.5 | 5.2 | 0.00 | 0.00 | 0.00 | 34 | 1011.4 |
| 20260502202912 | 65 | 10 | 7.8 | 12.2 | 0.00 | 0.00 | 0.00 | 33 | 1011.4 |
| 20260502202410 | 65 | 266 | 7.8 | 8.7 | 0.00 | 0.00 | 0.00 | 35 | 1011.9 |
| 20260502201908 | 64 | 284 | 1.7 | 5.2 | 0.00 | 0.00 | 0.00 | 35 | 1012.2 |
| 20260502201403 | 64 | 239 | 7.0 | 8.7 | 0.00 | 0.00 | 0.00 | 35 | 1011.9 |
| 20260502200900 | 63 | 230 | 10.4 | 12.2 | 0.00 | 0.00 | 0.00 | 34 | 1012.2 |
| 20260502200355 | 64 | 227 | 11.3 | 14.8 | 0.00 | 0.00 | 0.00 | 34 | 1012.2 |
| 20260502195854 | 64 | 225 | 8.7 | 15.6 | 0.00 | 0.00 | 0.00 | 34 | 1012.2 |
| 20260502195350 | 63 | 193 | 5.2 | 7.0 | 0.00 | 0.00 | 0.00 | 34 | 1012.6 |
| 20260502194847 | 62 | 215 | 7.8 | 13.9 | 0.00 | 0.00 | 0.00 | 35 | 1012.6 |
| 20260502194344 | 62 | 213 | 9.6 | 12.2 | 0.00 | 0.00 | 0.00 | 36 | 1012.9 |
| 20260502193840 | 63 | 241 | 9.6 | 13.9 | 0.00 | 0.00 | 0.00 | 33 | 1012.6 |
| 20260502193337 | 62 | 252 | 4.3 | 5.2 | 0.00 | 0.00 | 0.00 | 34 | 1012.9 |
| 20260502192832 | 62 | 224 | 1.7 | 4.3 | 0.00 | 0.00 | 0.00 | 34 | 1012.9 |
| 20260502192330 | 63 | 230 | 7.0 | 8.7 | 0.00 | 0.00 | 0.00 | 34 | 1013.2 |
| 20260502191827 | 61 | 275 | 2.6 | 4.3 | 0.00 | 0.00 | 0.00 | 37 | 1013.2 |
| 20260502191325 | 61 | 212 | 8.7 | 9.6 | 0.00 | 0.00 | 0.00 | 36 | 1013.6 |
| 20260502190822 | 62 | 243 | 0.0 | 0.9 | 0.00 | 0.00 | 0.00 | 35 | 1013.2 |
| 20260502190319 | 61 | 249 | 6.1 | 7.8 | 0.00 | 0.00 | 0.00 | 35 | 1013.6 |
| 20260502185815 | 60 | 261 | 0.0 | 0.0 | 0.00 | 0.00 | 0.00 | 36 | 1013.6 |
| 20260502185311 | 60 | 219 | 7.8 | 8.7 | 0.00 | 0.00 | 0.00 | 35 | 1013.6 |
| 20260502184808 | 61 | 231 | 7.8 | 8.7 | 0.00 | 0.00 | 0.00 | 36 | 1013.9 |
| 20260502184303 | 60 | 250 | 9.6 | 11.3 | 0.00 | 0.00 | 0.00 | 36 | 1013.9 |
| 20260502183800 | 60 | 231 | 7.8 | 9.6 | 0.00 | 0.00 | 0.00 | 36 | 1013.9 |
| 20260502183256 | 60 | 239 | 5.2 | 7.0 | 0.00 | 0.00 | 0.00 | 36 | 1013.9 |
| 20260502182752 | 59 | 224 | 5.2 | 6.1 | 0.00 | 0.00 | 0.00 | 36 | 1014.3 |
| 20260502182247 | 59 | 216 | 2.6 | 5.2 | 0.00 | 0.00 | 0.00 | 36 | 1014.3 |
| 20260502181744 | 59 | 309 | 4.3 | 5.2 | 0.00 | 0.00 | 0.00 | 36 | 1014.6 |
| 20260502181243 | 58 | 190 | 6.1 | 7.0 | 0.00 | 0.00 | 0.00 | 37 | 1014.6 |
| 20260502180740 | 59 | 195 | 6.1 | 7.8 | 0.00 | 0.00 | 0.00 | 36 | 1014.6 |
| 20260502180238 | 58 | 221 | 2.6 | 2.6 | 0.00 | 0.00 | 0.00 | 38 | 1014.6 |
| 20260502170202 | 57 | 210 | 3.5 | 5.2 | 0.00 | 0.00 | 0.00 | 38 | 1015.7 |
| 20260502164148 | 55 | 267 | 0.0 | 0.0 | 0.00 | 0.00 | 0.00 | 39 | 1015.7 |
| 20260502163644 | 55 | 229 | 6.1 | 7.0 | 0.00 | 0.00 | 0.00 | 40 | 1016.0 |
| 20260502163141 | 55 | 280 | 0.9 | 1.7 | 0.00 | 0.00 | 0.00 | 40 | 1016.0 |
| 20260502162638 | 55 | 221 | 0.0 | 0.0 | 0.00 | 0.00 | 0.00 | 40 | 1016.4 |
| 20260502162135 | 54 | 210 | 6.1 | 7.8 | 0.00 | 0.00 | 0.00 | 40 | 1016.4 |
| 20260502161632 | 55 | 220 | 3.5 | 5.2 | 0.00 | 0.00 | 0.00 | 40 | 1016.4 |
| 20260502161129 | 55 | 206 | 6.1 | 7.8 | 0.00 | 0.00 | 0.00 | 40 | 1016.4 |
| 20260502160627 | 55 | 309 | 4.3 | 5.2 | 0.00 | 0.00 | 0.00 | 40 | 1016.4 |
| 20260502160126 | 54 | 332 | 0.0 | 1.7 | 0.00 | 0.00 | 0.00 | 42 | 1016.4 |
| 20260502152040 | 53 | 342 | 5.2 | 7.0 | 0.00 | 0.00 | 0.00 | 43 | 1016.7 |
| 20260502151537 | 52 | 281 | 0.0 | 0.9 | 0.00 | 0.00 | 0.00 | 45 | 1016.7 |
| 20260502151034 | 52 | 268 | 2.6 | 6.1 | 0.00 | 0.00 | 0.00 | 45 | 1016.7 |
| 20260502150532 | 52 | 200 | 6.1 | 7.0 | 0.00 | 0.00 | 0.00 | 45 | 1016.7 |
| 20260502130416 | 45 | 292 | 0.0 | 0.0 | 0.00 | 0.00 | 0.00 | 63 | 1017.4 |
| 20260502123359 | 41 | 283 | 0.0 | 0.0 | 0.00 | 0.00 | 0.00 | 69 | 1017.4 |
| 20260502122856 | 40 | 266 | 0.0 | 0.0 | 0.00 | 0.00 | 0.00 | 70 | 1017.4 |
| 20260502122352 | 39 | 276 | 0.0 | 0.0 | 0.00 | 0.00 | 0.00 | 70 | 1017.4 |
| 20260502121850 | 39 | 283 | 0.0 | 0.0 | 0.00 | 0.00 | 0.00 | 71 | 1017.4 |
| 20260502121347 | 39 | 271 | 0.0 | 0.0 | 0.00 | 0.00 | 0.00 | 71 | 1017.4 |
| 20260502120845 | 38 | 267 | 0.0 | 0.0 | 0.00 | 0.00 | 0.00 | 72 | 1017.4 |
| 20260502120341 | 38 | 272 | 0.0 | 0.0 | 0.00 | 0.00 | 0.00 | 72 | 1017.4 |
| 20260502115838 | 38 | 257 | 0.0 | 0.0 | 0.00 | 0.00 | 0.00 | 72 | 1017.4 |
| 20260502115335 | 37 | 278 | 0.0 | 0.0 | 0.00 | 0.00 | 0.00 | 73 | 1017.4 |
| 20260502114832 | 37 | 267 | 0.0 | 0.0 | 0.00 | 0.00 | 0.00 | 73 | 1017.4 |
| 20260502114329 | 36 | 260 | 0.0 | 0.0 | 0.00 | 0.00 | 0.00 | 73 | 1017.4 |
| 20260502113825 | 36 | 275 | 0.0 | 0.9 | 0.00 | 0.00 | 0.00 | 74 | 1017.4 |
| 20260502113323 | 36 | 265 | 0.0 | 0.0 | 0.00 | 0.00 | 0.00 | 73 | 1017.4 |
| 20260502112821 | 36 | 274 | 0.0 | 0.0 | 0.00 | 0.00 | 0.00 | 74 | 1017.4 |
| 20260502112318 | 35 | 267 | 0.0 | 0.0 | 0.00 | 0.00 | 0.00 | 74 | 1017.1 |
| 20260502111816 | 36 | 266 | 0.0 | 0.0 | 0.00 | 0.00 | 0.00 | 73 | 1017.1 |
| 20260502111313 | 36 | 264 | 0.0 | 0.0 | 0.00 | 0.00 | 0.00 | 72 | 1017.4 |
| 20260502110811 | 36 | 261 | 0.0 | 0.0 | 0.00 | 0.00 | 0.00 | 73 | 1017.4 |
| 20260502110309 | 36 | 262 | 0.0 | 0.0 | 0.00 | 0.00 | 0.00 | 73 | 1017.4 |
| 20260502105806 | 36 | 262 | 0.0 | 0.0 | 0.00 | 0.00 | 0.00 | 72 | 1017.4 |
| 20260502105305 | 36 | 264 | 0.0 | 0.0 | 0.00 | 0.00 | 0.00 | 72 | 1017.4 |
| 20260502104800 | 36 | 265 | 0.0 | 0.0 | 0.00 | 0.00 | 0.00 | 72 | 1017.4 |
| 20260502104257 | 36 | 264 | 0.0 | 0.0 | 0.00 | 0.00 | 0.00 | 72 | 1017.4 |
| 20260502103754 | 36 | 267 | 0.0 | 0.0 | 0.00 | 0.00 | 0.00 | 72 | 1017.4 |
| 20260502103252 | 36 | 267 | 0.0 | 0.0 | 0.00 | 0.00 | 0.00 | 72 | 1017.7 |
| 20260502102749 | 36 | 265 | 0.0 | 0.0 | 0.00 | 0.00 | 0.00 | 71 | 1017.4 |
| 20260502102245 | 36 | 257 | 0.0 | 0.0 | 0.00 | 0.00 | 0.00 | 71 | 1017.4 |
| 20260502101744 | 36 | 268 | 0.0 | 0.0 | 0.00 | 0.00 | 0.00 | 71 | 1017.4 |
| 20260502101241 | 37 | 268 | 0.0 | 0.0 | 0.00 | 0.00 | 0.00 | 70 | 1017.4 |
| 20260502100739 | 37 | 264 | 0.0 | 0.0 | 0.00 | 0.00 | 0.00 | 70 | 1017.4 |
| 20260502100238 | 37 | 259 | 0.0 | 0.0 | 0.00 | 0.00 | 0.00 | 69 | 1017.4 |
| 20260502091212 | 38 | 262 | 0.0 | 0.0 | 0.00 | 0.00 | 0.00 | 65 | 1017.1 |
| 20260502090709 | 38 | 265 | 0.0 | 0.0 | 0.00 | 0.00 | 0.00 | 65 | 1017.1 |
| 20260502090206 | 39 | 253 | 0.0 | 0.0 | 0.00 | 0.00 | 0.00 | 64 | 1017.1 |
| 20260502071101 | 40 | 266 | 0.0 | 0.0 | 0.00 | 0.00 | 0.00 | 62 | 1017.7 |
| 20260502070559 | 40 | 265 | 0.0 | 0.0 | 0.00 | 0.00 | 0.00 | 61 | 1017.7 |
| 20260502070057 | 40 | 257 | 0.0 | 0.0 | 0.00 | 0.00 | 0.00 | 61 | 1017.4 |
| 20260502065555 | 40 | 258 | 0.0 | 0.0 | 0.00 | 0.00 | 0.00 | 61 | 1017.4 |
| 20260502065053 | 40 | 267 | 0.0 | 0.0 | 0.00 | 0.00 | 0.00 | 60 | 1017.4 |
| 20260502064551 | 40 | 274 | 0.0 | 0.0 | 0.00 | 0.00 | 0.00 | 60 | 1017.7 |
| 20260502064048 | 40 | 263 | 0.0 | 0.0 | 0.00 | 0.00 | 0.00 | 60 | 1017.4 |
| 20260502063545 | 40 | 266 | 0.0 | 0.0 | 0.00 | 0.00 | 0.00 | 60 | 1017.7 |
| 20260502063043 | 40 | 270 | 0.0 | 0.0 | 0.00 | 0.00 | 0.00 | 60 | 1017.7 |
| 20260502062540 | 40 | 266 | 0.0 | 0.0 | 0.00 | 0.00 | 0.00 | 60 | 1017.7 |
| 20260502062038 | 40 | 265 | 0.0 | 0.0 | 0.00 | 0.00 | 0.00 | 61 | 1017.4 |
| 20260502061536 | 40 | 276 | 0.0 | 0.0 | 0.00 | 0.00 | 0.00 | 61 | 1017.4 |
| 20260502061033 | 40 | 266 | 0.0 | 0.0 | 0.00 | 0.00 | 0.00 | 60 | 1017.7 |
| 20260502060528 | 41 | 264 | 0.0 | 0.0 | 0.00 | 0.00 | 0.00 | 59 | 1017.4 |
| 20260502060025 | 41 | 262 | 0.0 | 0.0 | 0.00 | 0.00 | 0.00 | 59 | 1017.4 |
| 20260502055522 | 41 | 266 | 0.0 | 0.0 | 0.00 | 0.00 | 0.00 | 59 | 1017.7 |
| 20260502055021 | 41 | 263 | 0.0 | 0.0 | 0.00 | 0.00 | 0.00 | 59 | 1017.4 |
| 20260502054519 | 41 | 269 | 0.0 | 0.0 | 0.00 | 0.00 | 0.00 | 58 | 1017.4 |
| 20260502054016 | 41 | 272 | 0.0 | 0.0 | 0.00 | 0.00 | 0.00 | 58 | 1017.7 |
| 20260502053513 | 41 | 266 | 0.0 | 0.0 | 0.00 | 0.00 | 0.00 | 59 | 1017.4 |
| 20260502053011 | 40 | 263 | 0.0 | 0.0 | 0.00 | 0.00 | 0.00 | 61 | 1017.7 |
| 20260502052509 | 40 | 263 | 0.0 | 0.0 | 0.00 | 0.00 | 0.00 | 61 | 1017.7 |
| 20260502052007 | 40 | 262 | 0.0 | 0.0 | 0.00 | 0.00 | 0.00 | 62 | 1017.7 |
| 20260502051505 | 40 | 269 | 0.0 | 0.0 | 0.00 | 0.00 | 0.00 | 62 | 1017.4 |
| 20260502051002 | 41 | 272 | 0.0 | 0.0 | 0.00 | 0.00 | 0.00 | 60 | 1017.7 |
| 20260502050458 | 41 | 272 | 0.0 | 0.0 | 0.00 | 0.00 | 0.00 | 58 | 1017.4 |
| 20260502045955 | 41 | 269 | 0.0 | 0.0 | 0.00 | 0.00 | 0.00 | 56 | 1017.4 |
| 20260502045452 | 41 | 278 | 0.0 | 0.0 | 0.00 | 0.00 | 0.00 | 56 | 1017.4 |
| 20260502044949 | 41 | 268 | 0.0 | 0.0 | 0.00 | 0.00 | 0.00 | 57 | 1017.4 |
| 20260502044444 | 41 | 266 | 0.0 | 0.0 | 0.00 | 0.00 | 0.00 | 57 | 1017.4 |
| 20260502043942 | 41 | 267 | 0.0 | 0.0 | 0.00 | 0.00 | 0.00 | 56 | 1017.4 |
| 20260502043439 | 42 | 266 | 0.0 | 0.0 | 0.00 | 0.00 | 0.00 | 58 | 1017.4 |
| 20260502042939 | 42 | 269 | 0.0 | 0.0 | 0.00 | 0.00 | 0.00 | 57 | 1017.7 |
| 20260502042436 | 42 | 266 | 0.0 | 0.0 | 0.00 | 0.00 | 0.00 | 57 | 1017.4 |
| 20260502041933 | 42 | 269 | 0.0 | 0.0 | 0.00 | 0.00 | 0.00 | 57 | 1017.4 |
| 20260502041431 | 42 | 270 | 0.0 | 0.0 | 0.00 | 0.00 | 0.00 | 58 | 1017.7 |
| 20260502040928 | 42 | 271 | 0.0 | 0.0 | 0.00 | 0.00 | 0.00 | 58 | 1017.4 |
| 20260502040424 | 43 | 266 | 0.0 | 0.0 | 0.00 | 0.00 | 0.00 | 58 | 1017.4 |
| 20260502035920 | 43 | 259 | 0.0 | 0.0 | 0.00 | 0.00 | 0.00 | 57 | 1017.4 |
| 20260502035417 | 42 | 266 | 0.0 | 0.0 | 0.00 | 0.00 | 0.00 | 57 | 1017.1 |
| 20260502034915 | 42 | 266 | 0.0 | 0.0 | 0.00 | 0.00 | 0.00 | 57 | 1017.4 |
| 20260502034414 | 42 | 266 | 0.0 | 0.0 | 0.00 | 0.00 | 0.00 | 57 | 1017.4 |
| 20260502033911 | 42 | 272 | 0.0 | 0.0 | 0.00 | 0.00 | 0.00 | 55 | 1017.4 |
| 20260502033409 | 43 | 272 | 0.0 | 0.0 | 0.00 | 0.00 | 0.00 | 55 | 1017.7 |
| 20260502032905 | 43 | 266 | 0.0 | 0.0 | 0.00 | 0.00 | 0.00 | 55 | 1017.4 |
| 20260502032401 | 43 | 266 | 0.0 | 0.0 | 0.00 | 0.00 | 0.00 | 56 | 1017.7 |
| 20260502031859 | 43 | 263 | 0.0 | 0.0 | 0.00 | 0.00 | 0.00 | 53 | 1017.4 |
| 20260502031357 | 43 | 266 | 0.0 | 0.0 | 0.00 | 0.00 | 0.00 | 52 | 1017.7 |
| 20260502030855 | 43 | 263 | 0.0 | 0.0 | 0.00 | 0.00 | 0.00 | 53 | 1017.4 |
| 20260502030353 | 43 | 264 | 0.0 | 0.0 | 0.00 | 0.00 | 0.00 | 51 | 1017.4 |
| 20260502025850 | 43 | 264 | 0.0 | 0.0 | 0.00 | 0.00 | 0.00 | 51 | 1017.7 |
| 20260502025347 | 43 | 264 | 0.0 | 0.0 | 0.00 | 0.00 | 0.00 | 53 | 1017.4 |
| 20260502024845 | 43 | 272 | 0.0 | 0.0 | 0.00 | 0.00 | 0.00 | 51 | 1017.4 |
| 20260502024343 | 43 | 272 | 0.0 | 0.0 | 0.00 | 0.00 | 0.00 | 51 | 1017.4 |
| 20260502023841 | 43 | 272 | 0.0 | 0.0 | 0.00 | 0.00 | 0.00 | 51 | 1017.7 |
| 20260502023338 | 43 | 272 | 0.0 | 0.0 | 0.00 | 0.00 | 0.00 | 50 | 1017.1 |
| 20260502022836 | 44 | 272 | 0.0 | 0.0 | 0.00 | 0.00 | 0.00 | 52 | 1017.4 |
| 20260502022332 | 44 | 272 | 0.0 | 0.0 | 0.00 | 0.00 | 0.00 | 50 | 1017.4 |
| 20260502021829 | 44 | 272 | 0.0 | 0.0 | 0.00 | 0.00 | 0.00 | 51 | 1017.4 |
| 20260502021326 | 44 | 272 | 0.0 | 0.0 | 0.00 | 0.00 | 0.00 | 52 | 1017.1 |
| 20260502020824 | 44 | 272 | 0.0 | 0.0 | 0.00 | 0.00 | 0.00 | 50 | 1017.1 |
| 20260502020321 | 44 | 272 | 0.0 | 0.0 | 0.00 | 0.00 | 0.00 | 50 | 1017.4 |
| 20260502015818 | 45 | 272 | 0.0 | 0.0 | 0.00 | 0.00 | 0.00 | 52 | 1017.1 |
| 20260502015315 | 45 | 272 | 0.0 | 0.0 | 0.00 | 0.00 | 0.00 | 51 | 1017.1 |
| 20260502014812 | 45 | 272 | 0.0 | 0.0 | 0.00 | 0.00 | 0.00 | 50 | 1017.1 |
| 20260502014309 | 45 | 272 | 0.0 | 0.0 | 0.00 | 0.00 | 0.00 | 49 | 1016.7 |
| 20260502013805 | 46 | 272 | 0.0 | 0.0 | 0.00 | 0.00 | 0.00 | 48 | 1017.1 |
| 20260502013301 | 47 | 272 | 0.0 | 0.0 | 0.00 | 0.00 | 0.00 | 47 | 1017.1 |
| 20260502012757 | 47 | 272 | 0.0 | 0.0 | 0.00 | 0.00 | 0.00 | 43 | 1017.1 |
| 20260502012255 | 47 | 282 | 0.0 | 0.0 | 0.00 | 0.00 | 0.00 | 45 | 1017.1 |
| 20260502011752 | 47 | 282 | 0.0 | 0.0 | 0.00 | 0.00 | 0.00 | 43 | 1016.7 |
| 20260502011248 | 48 | 282 | 0.0 | 0.0 | 0.00 | 0.00 | 0.00 | 41 | 1016.7 |
| 20260502010746 | 49 | 282 | 0.0 | 0.0 | 0.00 | 0.00 | 0.00 | 40 | 1016.7 |
| 20260502010242 | 49 | 294 | 0.0 | 0.0 | 0.00 | 0.00 | 0.00 | 39 | 1016.7 |
| 20260502005739 | 50 | 302 | 0.0 | 0.0 | 0.00 | 0.00 | 0.00 | 38 | 1016.7 |
| 20260502005237 | 50 | 280 | 0.9 | 4.3 | 0.00 | 0.00 | 0.00 | 38 | 1016.7 |
| 20260502004734 | 50 | 286 | 0.0 | 0.0 | 0.00 | 0.00 | 0.00 | 38 | 1016.7 |
| 20260502004230 | 51 | 279 | 0.0 | 0.0 | 0.00 | 0.00 | 0.00 | 37 | 1016.7 |
| 20260502003728 | 51 | 305 | 0.0 | 0.0 | 0.00 | 0.00 | 0.00 | 38 | 1016.7 |
| 20260502003225 | 51 | 286 | 0.0 | 0.0 | 0.00 | 0.00 | 0.00 | 38 | 1016.7 |
| 20260502002720 | 51 | 295 | 2.6 | 4.3 | 0.00 | 0.00 | 0.00 | 36 | 1016.7 |
| 20260502002219 | 52 | 282 | 0.0 | 0.0 | 0.00 | 0.00 | 0.00 | 35 | 1016.7 |
| 20260502001715 | 51 | 302 | 0.0 | 0.0 | 0.00 | 0.00 | 0.00 | 35 | 1016.7 |
| 20260502001214 | 51 | 275 | 0.0 | 0.0 | 0.00 | 0.00 | 0.00 | 35 | 1016.7 |
| 20260502000711 | 51 | 337 | 1.7 | 1.7 | 0.00 | 0.00 | 0.00 | 35 | 1016.7 |
| 20260502000211 | 52 | 341 | 0.0 | 0.0 | 0.00 | 0.00 | 0.00 | 35 | 1017.1 |
| 20260501235704 | 51 | 313 | 0.0 | 0.0 | 0.00 | 0.00 | 0.00 | 36 | 1016.7 |
| 20260501235200 | 51 | 327 | 0.0 | 0.0 | 0.00 | 0.00 | 0.00 | 36 | 1016.7 |
| 20260501234656 | 52 | 338 | 2.6 | 4.3 | 0.00 | 0.00 | 0.00 | 35 | 1016.7 |
| 20260501234153 | 52 | 289 | 0.0 | 0.0 | 0.00 | 0.00 | 0.00 | 36 | 1016.7 |
| 20260501233651 | 52 | 281 | 3.5 | 7.0 | 0.00 | 0.00 | 0.00 | 35 | 1016.7 |
| 20260501233148 | 51 | 277 | 0.0 | 0.0 | 0.00 | 0.00 | 0.00 | 37 | 1016.7 |
| 20260501232644 | 51 | 325 | 1.7 | 2.6 | 0.00 | 0.00 | 0.00 | 36 | 1016.7 |
| 20260501232142 | 52 | 350 | 0.9 | 2.6 | 0.00 | 0.00 | 0.00 | 36 | 1016.7 |
| 20260501231639 | 53 | 336 | 4.3 | 6.1 | 0.00 | 0.00 | 0.00 | 35 | 1016.7 |
| 20260501231137 | 52 | 282 | 0.0 | 0.0 | 0.00 | 0.00 | 0.00 | 35 | 1017.1 |
| 20260501230635 | 53 | 288 | 1.7 | 4.3 | 0.00 | 0.00 | 0.00 | 34 | 1016.7 |
| 20260501230133 | 52 | 287 | 0.0 | 0.0 | 0.00 | 0.00 | 0.00 | 35 | 1017.1 |
| 20260501225631 | 52 | 294 | 0.9 | 1.7 | 0.00 | 0.00 | 0.00 | 36 | 1016.7 |
| 20260501225127 | 50 | 292 | 0.0 | 0.0 | 0.00 | 0.00 | 0.00 | 38 | 1017.1 |
| 20260501224624 | 51 | 284 | 3.5 | 5.2 | 0.00 | 0.00 | 0.00 | 38 | 1016.7 |
| 20260501224121 | 52 | 293 | 0.0 | 1.7 | 0.00 | 0.00 | 0.00 | 37 | 1016.7 |
| 20260501223617 | 51 | 321 | 2.6 | 2.6 | 0.00 | 0.00 | 0.00 | 35 | 1016.7 |
| 20260501223114 | 50 | 262 | 0.0 | 0.0 | 0.00 | 0.00 | 0.00 | 36 | 1016.7 |
| 20260501222610 | 50 | 296 | 0.0 | 0.0 | 0.00 | 0.00 | 0.00 | 37 | 1016.7 |
| 20260501222107 | 50 | 278 | 0.0 | 0.0 | 0.00 | 0.00 | 0.00 | 38 | 1017.1 |
| 20260501221604 | 50 | 327 | 0.0 | 0.0 | 0.00 | 0.00 | 0.00 | 39 | 1017.1 |
| 20260501221101 | 51 | 275 | 0.0 | 0.0 | 0.00 | 0.00 | 0.00 | 39 | 1017.1 |
| 20260501220559 | 50 | 0 | 0.0 | 0.0 | 0.00 | 0.00 | 0.00 | 38 | 1017.1 |
| 20260501220055 | 50 | 333 | 0.0 | 0.0 | 0.00 | 0.00 | 0.00 | 37 | 1017.1 |
| 20260501215552 | 51 | 286 | 0.0 | 0.0 | 0.00 | 0.00 | 0.00 | 36 | 1017.1 |
| 20260501215047 | 51 | 336 | 0.0 | 0.9 | 0.00 | 0.00 | 0.00 | 36 | 1016.7 |
| 20260501214543 | 50 | 305 | 0.0 | 0.0 | 0.00 | 0.00 | 0.00 | 38 | 1017.1 |
| 20260501214039 | 50 | 316 | 0.0 | 0.9 | 0.00 | 0.00 | 0.00 | 38 | 1017.1 |
| 20260501213536 | 50 | 295 | 0.0 | 0.0 | 0.00 | 0.00 | 0.00 | 39 | 1017.1 |
| 20260501213032 | 50 | 294 | 0.0 | 0.0 | 0.00 | 0.00 | 0.00 | 38 | 1017.1 |
| 20260501212528 | 50 | 310 | 0.0 | 0.9 | 0.00 | 0.00 | 0.00 | 38 | 1017.1 |
| 20260501212026 | 49 | 13 | 5.2 | 7.8 | 0.00 | 0.00 | 0.00 | 38 | 1017.1 |
| 20260501211522 | 49 | 288 | 0.0 | 0.0 | 0.00 | 0.00 | 0.00 | 41 | 1017.1 |
| 20260501211020 | 49 | 323 | 0.0 | 0.0 | 0.00 | 0.00 | 0.00 | 40 | 1017.1 |
| 20260501210516 | 50 | 327 | 3.5 | 4.3 | 0.00 | 0.00 | 0.00 | 40 | 1017.1 |
| 20260501210013 | 51 | 325 | 4.3 | 6.1 | 0.00 | 0.00 | 0.00 | 38 | 1017.1 |
| 20260501205510 | 52 | 337 | 0.9 | 4.3 | 0.00 | 0.00 | 0.00 | 38 | 1017.1 |
| 20260501205008 | 51 | 300 | 1.7 | 1.7 | 0.00 | 0.00 | 0.00 | 37 | 1017.1 |
| 20260501204503 | 50 | 287 | 0.0 | 0.0 | 0.00 | 0.00 | 0.00 | 38 | 1017.1 |